Time;durP1;ratioP1;P1;durP2;ratioP2;P2;SDS_P1;SDS_P2;PMS_P1;PMS_P2;Temp;Humidity;BMP_temperature;BMP_pressure;BME280_temperature;BME280_humidity;BME280_pressure;Samples;Min_cycle;Max_cycle;Signal;HPM_P1;HPM_P2
2023/07/30 00:01:22;;;;;;;19.77;6.80;;;16.60;99.90;;;;;;5056748;28;20486;-79
2023/07/30 00:03:48;;;;;;;20.03;7.47;;;16.50;99.90;;;;;;5068613;28;20915;-79
2023/07/30 00:06:13;;;;;;;19.13;6.65;;;16.80;99.90;;;;;;5057374;28;20407;-79
2023/07/30 00:08:39;;;;;;;19.77;7.70;;;16.60;99.90;;;;;;5048686;28;20462;-79
2023/07/30 00:11:05;;;;;;;22.57;7.33;;;16.60;99.90;;;;;;5051577;28;20927;-80
2023/07/30 00:13:30;;;;;;;20.80;7.50;;;16.70;99.90;;;;;;5074031;28;20417;-79
2023/07/30 00:15:56;;;;;;;26.83;8.10;;;16.40;99.90;;;;;;5074747;28;20416;-79
2023/07/30 00:18:22;;;;;;;19.35;7.18;;;16.60;99.90;;;;;;5074679;28;20418;-79
2023/07/30 00:20:47;;;;;;;18.20;7.20;;;16.60;99.90;;;;;;5072958;28;20448;-79
2023/07/30 00:23:13;;;;;;;19.27;7.27;;;16.60;99.90;;;;;;5071161;28;20424;-78
2023/07/30 00:25:39;;;;;;;18.98;7.57;;;16.40;99.90;;;;;;5070431;28;20516;-79
2023/07/30 00:28:04;;;;;;;20.48;7.40;;;16.50;99.90;;;;;;5091454;28;20429;-78
2023/07/30 00:30:30;;;;;;;18.73;7.70;;;16.40;99.90;;;;;;5074572;28;20408;-79
2023/07/30 00:32:56;;;;;;;17.53;7.50;;;16.50;99.90;;;;;;5056895;28;20929;-79
2023/07/30 00:35:22;;;;;;;21.50;7.35;;;16.20;99.90;;;;;;5072105;28;20475;-79
2023/07/30 00:37:47;;;;;;;13.27;6.38;;;16.40;99.90;;;;;;5055554;28;20899;-79
2023/07/30 00:40:13;;;;;;;16.15;6.32;;;16.30;99.90;;;;;;5038611;28;20400;-79
2023/07/30 00:42:39;;;;;;;19.02;6.82;;;16.30;99.90;;;;;;5050241;28;20542;-79
2023/07/30 00:45:05;;;;;;;17.20;6.50;;;16.40;99.90;;;;;;5074925;28;20493;-79
2023/07/30 00:47:31;;;;;;;14.27;5.97;;;16.30;99.90;;;;;;5054559;28;20772;-79
2023/07/30 00:49:57;;;;;;;17.58;6.72;;;16.50;99.90;;;;;;5042928;28;20413;-79
2023/07/30 00:52:24;;;;;;;18.30;6.47;;;16.50;99.90;;;;;;5072103;28;20440;-80
2023/07/30 00:54:52;;;;;;;21.45;6.38;;;16.10;99.90;;;;;;5073737;28;20482;-79
2023/07/30 00:57:19;;;;;;;17.58;6.72;;;16.50;99.90;;;;;;5070958;28;20494;-79
2023/07/30 00:59:46;;;;;;;17.48;6.10;;;16.50;99.90;;;;;;5056511;28;20417;-79
2023/07/30 01:02:12;;;;;;;17.17;6.50;;;16.40;99.90;;;;;;5069827;28;20417;-79
2023/07/30 01:04:39;;;;;;;17.60;6.43;;;16.50;99.90;;;;;;5069026;28;20423;-79
2023/07/30 01:07:05;;;;;;;15.82;6.35;;;16.40;99.90;;;;;;5063116;28;20497;-80
2023/07/30 01:09:32;;;;;;;20.00;6.47;;;16.30;99.90;;;;;;5073827;28;20492;-79
2023/07/30 01:11:59;;;;;;;21.85;6.70;;;16.40;99.90;;;;;;5048725;28;20779;-79
2023/07/30 01:14:28;;;;;;;16.37;6.63;;;16.50;99.90;;;;;;5054306;28;20778;-79
2023/07/30 01:16:54;;;;;;;19.25;6.82;;;16.20;99.90;;;;;;5043999;28;20434;-79
2023/07/30 01:19:20;;;;;;;23.20;6.80;;;16.40;99.90;;;;;;5060219;28;20418;-79
2023/07/30 01:21:45;;;;;;;18.07;5.80;;;16.30;99.90;;;;;;5070466;28;20949;-79
2023/07/30 01:24:11;;;;;;;19.48;6.35;;;16.40;99.90;;;;;;5064528;28;20445;-79
2023/07/30 01:26:54;;;;;;;21.90;7.18;;;16.30;99.90;;;;;;5056990;28;20435;-79
2023/07/30 01:29:29;;;;;;;22.00;7.50;;;16.20;99.90;;;;;;5054355;28;20763;-79
2023/07/30 01:32:01;;;;;;;18.63;6.45;;;16.30;99.90;;;;;;5054019;28;20419;-79
2023/07/30 01:34:29;;;;;;;23.90;6.75;;;16.10;99.90;;;;;;5055926;28;20385;-79
2023/07/30 01:36:57;;;;;;;20.48;7.38;;;16.20;99.90;;;;;;5069332;28;20414;-79
2023/07/30 01:39:24;;;;;;;20.67;6.63;;;16.40;99.90;;;;;;5074203;28;20402;-79
2023/07/30 01:41:49;;;;;;;23.10;6.88;;;16.20;99.90;;;;;;5036360;28;20911;-78
2023/07/30 01:44:15;;;;;;;21.10;7.20;;;16.30;99.90;;;;;;5062946;28;20443;-78
2023/07/30 01:46:41;;;;;;;25.93;6.67;;;16.40;99.90;;;;;;5072428;28;20426;-79
2023/07/30 01:49:06;;;;;;;23.37;6.87;;;16.50;99.90;;;;;;5052760;28;20556;-79
2023/07/30 01:51:32;;;;;;;22.23;6.75;;;16.30;99.90;;;;;;5054663;28;20445;-80
2023/07/30 01:53:58;;;;;;;24.63;6.80;;;16.10;99.90;;;;;;5053937;28;20542;-79
2023/07/30 01:56:23;;;;;;;23.17;7.23;;;16.00;99.90;;;;;;5053495;28;20420;-80
2023/07/30 01:58:49;;;;;;;21.80;7.20;;;16.30;99.90;;;;;;5037399;28;20419;-79
2023/07/30 02:01:15;;;;;;;22.70;7.60;;;16.00;99.90;;;;;;5063744;28;20421;-79
2023/07/30 02:03:41;;;;;;;22.17;6.97;;;16.00;99.90;;;;;;5055689;28;20426;-79
2023/07/30 02:06:07;;;;;;;21.33;6.90;;;16.20;99.90;;;;;;5069339;28;20571;-79
2023/07/30 02:08:32;;;;;;;20.25;7.07;;;16.00;99.90;;;;;;5067101;28;20454;-79
2023/07/30 02:10:59;;;;;;;23.73;6.78;;;16.00;99.90;;;;;;5053609;28;20826;-79
2023/07/30 02:13:25;;;;;;;25.37;6.97;;;16.10;99.90;;;;;;5085050;28;20911;-79
2023/07/30 02:15:51;;;;;;;27.10;7.25;;;16.10;99.90;;;;;;5055108;28;20743;-79
2023/07/30 02:18:17;;;;;;;24.58;7.10;;;16.50;99.90;;;;;;5069916;28;20759;-79
2023/07/30 02:20:43;;;;;;;27.42;6.80;;;15.80;99.90;;;;;;5040421;28;20452;-79
2023/07/30 02:23:09;;;;;;;21.40;6.43;;;15.80;99.90;;;;;;5067144;28;20418;-78
2023/07/30 02:25:35;;;;;;;19.90;6.53;;;15.90;99.90;;;;;;5077239;28;20940;-78
2023/07/30 02:28:01;;;;;;;20.17;6.95;;;15.80;99.90;;;;;;5062579;28;20498;-79
2023/07/30 02:30:28;;;;;;;27.38;6.50;;;15.90;99.90;;;;;;5062556;28;20891;-79
2023/07/30 02:32:54;;;;;;;28.70;7.57;;;15.90;99.90;;;;;;5067292;28;20425;-79
2023/07/30 02:35:20;;;;;;;24.55;7.13;;;15.90;99.90;;;;;;5090207;28;20743;-79
2023/07/30 02:37:45;;;;;;;26.07;6.67;;;15.80;99.90;;;;;;5071511;28;20448;-79
2023/07/30 02:40:11;;;;;;;25.70;7.00;;;16.00;99.90;;;;;;5040120;28;20441;-79
2023/07/30 02:42:37;;;;;;;25.30;6.70;;;15.90;99.90;;;;;;5075687;28;20512;-78
2023/07/30 02:45:03;;;;;;;20.45;6.43;;;16.00;99.90;;;;;;5049230;28;20430;-79
2023/07/30 02:47:29;;;;;;;26.15;7.05;;;15.90;99.90;;;;;;5068612;28;20421;-79
2023/07/30 02:49:55;;;;;;;27.53;6.37;;;15.80;99.90;;;;;;5036256;28;20422;-80
2023/07/30 02:52:20;;;;;;;23.10;6.70;;;15.90;99.90;;;;;;5061797;28;20447;-80
2023/07/30 02:54:46;;;;;;;24.10;6.57;;;15.80;99.90;;;;;;5073333;28;20425;-80
2023/07/30 02:57:12;;;;;;;24.02;6.68;;;15.80;99.90;;;;;;5063434;28;20465;-80
2023/07/30 02:59:40;;;;;;;22.98;5.97;;;15.90;99.90;;;;;;5071670;28;20430;-79
2023/07/30 03:02:06;;;;;;;18.27;5.80;;;15.90;99.90;;;;;;5072844;28;20457;-80
2023/07/30 03:04:32;;;;;;;24.55;6.40;;;15.80;99.90;;;;;;5056670;28;20411;-79
2023/07/30 03:06:58;;;;;;;21.98;6.65;;;15.90;99.90;;;;;;5058783;28;20418;-80
2023/07/30 03:09:23;;;;;;;21.45;6.35;;;15.60;99.90;;;;;;5057822;28;20422;-80
2023/07/30 03:11:50;;;;;;;20.93;6.20;;;15.90;99.90;;;;;;5030196;28;20429;-80
2023/07/30 03:14:16;;;;;;;22.10;6.30;;;15.90;99.90;;;;;;5060500;28;20499;-79
2023/07/30 03:16:41;;;;;;;24.73;6.55;;;15.90;99.90;;;;;;5069259;28;20509;-79
2023/07/30 03:19:07;;;;;;;21.77;5.75;;;15.90;99.90;;;;;;5076915;28;20484;-79
2023/07/30 03:21:33;;;;;;;27.13;6.43;;;15.80;99.90;;;;;;5054481;28;20514;-80
2023/07/30 03:23:58;;;;;;;24.57;6.37;;;15.70;99.90;;;;;;5073276;28;20434;-79
2023/07/30 03:26:24;;;;;;;21.43;6.67;;;15.80;99.90;;;;;;5073314;28;20528;-78
2023/07/30 03:28:50;;;;;;;24.05;6.63;;;15.70;99.90;;;;;;5054178;28;20434;-78
2023/07/30 03:31:15;;;;;;;25.35;6.72;;;15.70;99.90;;;;;;5029778;28;20527;-78
2023/07/30 03:33:45;;;;;;;25.25;6.97;;;15.70;99.90;;;;;;5078133;28;20427;-79
2023/07/30 03:36:13;;;;;;;22.55;6.50;;;15.80;99.90;;;;;;5036813;28;20427;-79
2023/07/30 03:38:39;;;;;;;25.45;6.82;;;15.60;99.90;;;;;;5072989;28;20408;-78
2023/07/30 03:41:06;;;;;;;25.58;7.32;;;15.40;99.90;;;;;;5053914;28;20414;-78
2023/07/30 03:43:35;;;;;;;21.87;6.93;;;15.60;99.90;;;;;;5074188;28;20793;-78
2023/07/30 03:46:01;;;;;;;23.20;6.65;;;15.70;99.90;;;;;;5073711;28;20426;-78
2023/07/30 03:48:27;;;;;;;23.90;7.32;;;15.50;99.90;;;;;;5059270;28;20405;-78
2023/07/30 03:50:54;;;;;;;26.77;6.95;;;15.50;99.90;;;;;;5039100;28;20407;-78
2023/07/30 03:53:20;;;;;;;25.40;6.85;;;15.50;99.90;;;;;;5055270;28;20400;-79
2023/07/30 03:55:45;;;;;;;24.88;6.68;;;15.70;99.90;;;;;;5075432;28;20410;-79
2023/07/30 03:58:11;;;;;;;22.95;6.63;;;15.40;99.90;;;;;;5092963;28;20417;-79
2023/07/30 04:00:37;;;;;;;26.63;7.07;;;15.60;99.90;;;;;;5030874;28;20405;-79
2023/07/30 04:03:03;;;;;;;19.67;6.43;;;15.60;99.90;;;;;;5057517;28;20426;-79
2023/07/30 04:05:29;;;;;;;22.00;6.47;;;15.70;99.90;;;;;;5071458;28;20475;-79
2023/07/30 04:07:55;;;;;;;27.27;6.80;;;15.50;99.90;;;;;;5062548;28;20503;-79
2023/07/30 04:10:21;;;;;;;28.15;6.80;;;15.30;99.90;;;;;;5072043;28;20838;-79
2023/07/30 04:12:46;;;;;;;26.30;6.95;;;15.60;99.90;;;;;;5072407;28;20406;-78
2023/07/30 04:15:12;;;;;;;30.05;6.70;;;15.40;99.90;;;;;;5074466;28;20422;-80
2023/07/30 04:17:38;;;;;;;25.23;6.40;;;15.50;99.90;;;;;;5074752;28;20394;-79
2023/07/30 04:20:05;;;;;;;26.73;6.47;;;15.40;99.90;;;;;;5074968;28;20901;-80
2023/07/30 04:22:31;;;;;;;21.27;5.95;;;15.60;99.90;;;;;;5059934;28;20422;-79
2023/07/30 04:24:56;;;;;;;23.13;6.45;;;15.60;99.90;;;;;;5064710;28;20975;-79
2023/07/30 04:27:22;;;;;;;26.30;6.97;;;15.50;99.90;;;;;;5057581;28;20418;-80
2023/07/30 04:29:48;;;;;;;22.73;6.35;;;15.60;99.90;;;;;;5037747;28;20420;-79
2023/07/30 04:32:14;;;;;;;24.65;6.72;;;15.70;99.90;;;;;;5072575;28;20500;-79
2023/07/30 04:34:40;;;;;;;22.88;6.65;;;15.70;99.90;;;;;;5070010;28;20429;-79
2023/07/30 04:37:06;;;;;;;23.60;6.15;;;15.70;99.90;;;;;;5057641;28;20414;-79
2023/07/30 04:39:35;;;;;;;22.52;6.22;;;15.60;99.90;;;;;;5057899;28;20427;-79
2023/07/30 04:42:01;;;;;;;26.73;6.47;;;15.70;99.90;;;;;;5070469;28;20430;-79
2023/07/30 04:44:27;;;;;;;26.63;6.67;;;15.90;99.90;;;;;;5042865;28;20563;-79
2023/07/30 04:46:52;;;;;;;27.60;6.03;;;15.80;99.90;;;;;;5058450;28;20409;-79
2023/07/30 04:49:18;;;;;;;20.52;5.90;;;16.00;99.90;;;;;;5072936;28;20423;-79
2023/07/30 04:51:44;;;;;;;22.35;6.32;;;16.20;99.90;;;;;;5072684;28;20410;-80
2023/07/30 04:54:09;;;;;;;17.07;5.13;;;15.90;99.90;;;;;;5040523;28;20405;-79
2023/07/30 04:56:36;;;;;;;22.90;6.67;;;16.20;99.90;;;;;;5074067;28;20437;-79
2023/07/30 04:59:02;;;;;;;20.42;5.40;;;16.20;99.90;;;;;;5072570;28;20426;-80
2023/07/30 05:01:27;;;;;;;19.92;5.97;;;16.00;99.90;;;;;;5070703;28;20767;-79
2023/07/30 05:03:53;;;;;;;24.65;6.07;;;16.20;99.90;;;;;;5063967;28;20458;-80
2023/07/30 05:06:19;;;;;;;20.52;5.97;;;16.10;99.90;;;;;;5072649;28;20445;-80
2023/07/30 05:08:45;;;;;;;20.02;5.75;;;16.30;99.90;;;;;;5073037;28;20425;-80
2023/07/30 05:11:11;;;;;;;20.17;5.50;;;15.90;99.90;;;;;;5073012;28;20445;-80
2023/07/30 05:13:36;;;;;;;20.80;5.40;;;16.20;99.90;;;;;;5073482;28;20417;-79
2023/07/30 05:16:02;;;;;;;18.67;5.17;;;16.10;99.90;;;;;;5045063;28;20462;-79
2023/07/30 05:18:28;;;;;;;25.00;6.20;;;16.20;99.90;;;;;;5055916;28;20852;-79
2023/07/30 05:20:55;;;;;;;19.02;5.65;;;16.40;99.90;;;;;;5037291;28;20419;-79
2023/07/30 05:23:21;;;;;;;19.15;5.10;;;16.30;99.90;;;;;;5061034;28;20421;-79
2023/07/30 05:25:46;;;;;;;20.42;5.68;;;16.20;99.90;;;;;;5078301;28;20415;-79
2023/07/30 05:28:12;;;;;;;23.75;5.32;;;16.30;99.90;;;;;;5067103;28;20421;-79
2023/07/30 05:30:38;;;;;;;15.68;5.05;;;16.70;99.90;;;;;;5069859;28;20451;-80
2023/07/30 05:33:04;;;;;;;25.30;5.70;;;16.50;99.90;;;;;;5055293;28;20417;-79
2023/07/30 05:35:30;;;;;;;22.37;5.87;;;16.60;99.90;;;;;;5059815;28;20419;-79
2023/07/30 05:37:56;;;;;;;19.77;5.13;;;16.70;99.90;;;;;;5045339;28;20480;-79
2023/07/30 05:40:24;;;;;;;24.17;5.73;;;15.80;99.90;;;;;;5063659;28;20428;-79
2023/07/30 05:42:50;;;;;;;22.00;5.47;;;16.60;99.90;;;;;;5054961;28;20943;-79
2023/07/30 05:45:16;;;;;;;24.75;5.60;;;16.20;99.90;;;;;;5054634;28;20562;-79
2023/07/30 05:47:42;;;;;;;22.00;5.03;;;16.70;99.90;;;;;;5066376;28;20409;-79
2023/07/30 05:50:08;;;;;;;19.48;4.90;;;16.60;99.90;;;;;;5068870;28;20415;-79
2023/07/30 05:52:34;;;;;;;16.38;5.00;;;16.60;99.90;;;;;;5056723;28;20444;-80
2023/07/30 05:55:00;;;;;;;19.40;4.97;;;16.60;99.90;;;;;;5071847;28;20476;-80
2023/07/30 05:57:25;;;;;;;19.83;4.90;;;16.60;99.90;;;;;;5086122;28;20418;-79
2023/07/30 05:59:54;;;;;;;18.65;5.28;;;16.70;99.90;;;;;;5059210;28;20772;-79
2023/07/30 06:02:19;;;;;;;20.42;5.20;;;17.10;99.90;;;;;;5065112;28;20418;-79
2023/07/30 06:04:45;;;;;;;18.57;4.70;;;16.80;99.90;;;;;;5073816;28;20510;-78
2023/07/30 06:07:11;;;;;;;17.80;4.80;;;17.00;99.90;;;;;;5067122;28;20403;-79
2023/07/30 06:09:36;;;;;;;18.00;5.18;;;17.00;99.90;;;;;;5060138;28;20432;-81
2023/07/30 06:12:03;;;;;;;19.70;5.25;;;17.00;99.90;;;;;;5067737;28;20957;-79
2023/07/30 06:14:28;;;;;;;15.77;5.28;;;16.90;99.90;;;;;;5054199;28;20431;-79
2023/07/30 06:16:54;;;;;;;17.98;5.00;;;17.10;99.90;;;;;;5075599;28;20428;-79
2023/07/30 06:19:20;;;;;;;16.73;4.70;;;17.00;99.90;;;;;;5069195;28;20423;-79
2023/07/30 06:21:46;;;;;;;17.02;4.60;;;17.20;99.90;;;;;;5033692;28;20411;-80
2023/07/30 06:24:12;;;;;;;16.23;4.68;;;17.00;99.90;;;;;;5051579;28;20907;-81
2023/07/30 06:26:38;;;;;;;15.68;4.38;;;17.20;99.90;;;;;;5073027;28;20414;-81
2023/07/30 06:29:03;;;;;;;16.47;4.47;;;17.40;99.90;;;;;;5073647;28;20953;-81
2023/07/30 06:31:29;;;;;;;16.93;4.47;;;17.30;99.90;;;;;;5084915;28;20910;-80
2023/07/30 06:33:55;;;;;;;13.70;4.30;;;17.20;99.90;;;;;;5066062;28;20835;-80
2023/07/30 06:36:21;;;;;;;14.87;4.30;;;17.40;99.90;;;;;;5069753;28;20508;-81
2023/07/30 06:38:46;;;;;;;13.50;3.70;;;17.40;99.90;;;;;;5068893;28;20436;-82
2023/07/30 06:41:12;;;;;;;15.65;4.65;;;17.30;99.90;;;;;;5063814;28;20423;-82
2023/07/30 06:43:38;;;;;;;15.80;3.93;;;17.60;99.90;;;;;;5065321;28;20413;-79
2023/07/30 06:46:04;;;;;;;13.77;3.60;;;17.70;99.90;;;;;;5065582;28;20417;-80
2023/07/30 06:48:29;;;;;;;11.50;3.70;;;17.60;99.90;;;;;;5067296;28;20405;-82
2023/07/30 06:50:55;;;;;;;12.80;3.65;;;17.40;99.90;;;;;;5052635;28;20968;-81
2023/07/30 06:53:21;;;;;;;11.13;3.33;;;17.60;99.90;;;;;;5042755;28;20400;-80
2023/07/30 06:55:46;;;;;;;10.27;3.10;;;17.90;99.90;;;;;;5055305;28;20417;-81
2023/07/30 06:58:12;;;;;;;11.90;3.10;;;18.10;99.90;;;;;;5058137;28;20478;-82
2023/07/30 07:00:38;;;;;;;13.15;3.45;;;18.30;99.90;;;;;;5059267;28;20417;-81
2023/07/30 07:03:03;;;;;;;10.98;3.10;;;17.90;99.90;;;;;;5060353;28;20429;-82
2023/07/30 07:05:29;;;;;;;11.73;3.20;;;18.00;99.90;;;;;;5046790;28;20427;-81
2023/07/30 07:07:55;;;;;;;13.82;3.42;;;18.50;99.90;;;;;;5060172;28;20436;-81
2023/07/30 07:10:21;;;;;;;15.27;3.65;;;18.20;99.90;;;;;;5075787;28;20886;-80
2023/07/30 07:12:47;;;;;;;11.93;2.80;;;18.30;99.90;;;;;;5074220;28;20421;-81
2023/07/30 07:15:13;;;;;;;11.70;3.00;;;18.50;99.90;;;;;;5060227;28;20413;-80
2023/07/30 07:17:39;;;;;;;15.60;3.65;;;18.20;99.90;;;;;;5071602;28;20971;-81
2023/07/30 07:20:07;;;;;;;15.07;3.30;;;18.50;99.90;;;;;;5040866;28;20474;-81
2023/07/30 07:22:33;;;;;;;15.00;3.30;;;18.30;99.90;;;;;;5072175;28;20512;-80
2023/07/30 07:24:59;;;;;;;13.63;3.10;;;18.70;99.90;;;;;;5058646;28;20414;-80
2023/07/30 07:27:25;;;;;;;11.20;2.70;;;18.90;99.90;;;;;;5065309;28;20439;-82
2023/07/30 07:29:52;;;;;;;12.65;3.17;;;19.00;99.90;;;;;;5063316;28;20819;-81
2023/07/30 07:32:18;;;;;;;11.35;3.03;;;19.40;99.90;;;;;;5056952;28;20418;-79
2023/07/30 07:34:48;;;;;;;10.93;2.80;;;19.30;99.90;;;;;;5071904;28;20414;-78
2023/07/30 07:37:16;;;;;;;8.15;2.63;;;19.50;99.90;;;;;;5066431;28;20423;-79
2023/07/30 07:39:43;;;;;;;9.93;2.60;;;19.70;99.90;;;;;;5061062;28;20835;-80
2023/07/30 07:42:09;;;;;;;9.50;2.40;;;20.10;99.90;;;;;;5043752;28;20923;-79
2023/07/30 07:44:35;;;;;;;8.63;2.63;;;20.10;99.90;;;;;;5065488;28;20415;-79
2023/07/30 07:47:01;;;;;;;10.38;2.42;;;20.00;99.90;;;;;;5050421;28;20422;-77
2023/07/30 07:49:27;;;;;;;10.95;2.45;;;19.70;99.90;;;;;;5064108;28;20481;-79
2023/07/30 07:51:53;;;;;;;11.45;2.88;;;19.80;99.90;;;;;;5072195;28;20422;-77
2023/07/30 07:54:18;;;;;;;6.77;2.20;;;19.50;99.90;;;;;;5075800;28;20434;-78
2023/07/30 07:56:44;;;;;;;10.10;2.20;;;19.60;99.90;;;;;;5046697;28;20466;-79
2023/07/30 07:59:10;;;;;;;6.38;2.10;;;19.20;99.90;;;;;;5050997;28;20426;-79
2023/07/30 08:01:35;;;;;;;7.23;2.00;;;19.10;99.90;;;;;;5063943;28;20428;-79
2023/07/30 08:04:02;;;;;;;7.33;2.00;;;19.10;99.90;;;;;;5049534;28;20490;-79
2023/07/30 08:06:28;;;;;;;9.25;2.10;;;18.70;99.90;;;;;;5069840;28;20493;-80
2023/07/30 08:08:53;;;;;;;6.45;2.10;;;18.50;99.90;;;;;;5050819;28;20511;-79
2023/07/30 08:11:19;;;;;;;7.43;2.20;;;18.50;99.90;;;;;;5060584;28;20481;-79
2023/07/30 08:13:45;;;;;;;11.23;2.47;;;18.60;99.90;;;;;;5032861;28;20444;-80
2023/07/30 08:16:11;;;;;;;8.70;2.17;;;18.70;99.90;;;;;;5043302;28;20407;-81
2023/07/30 08:18:37;;;;;;;8.87;2.27;;;18.50;99.90;;;;;;5063423;28;20424;-81
2023/07/30 08:21:03;;;;;;;8.10;2.27;;;18.50;99.90;;;;;;5059250;28;20440;-84
2023/07/30 08:23:29;;;;;;;8.70;2.45;;;18.50;99.90;;;;;;5066660;28;20414;-85
2023/07/30 08:25:54;;;;;;;10.30;2.00;;;18.80;99.90;;;;;;5060131;28;20431;-85
2023/07/30 08:28:20;;;;;;;10.35;2.38;;;18.70;99.90;;;;;;5063093;28;20914;-79
2023/07/30 08:30:46;;;;;;;8.55;2.45;;;18.70;99.90;;;;;;5054309;28;20414;-79
2023/07/30 08:33:12;;;;;;;9.98;2.10;;;18.70;99.90;;;;;;5050274;28;20522;-79
2023/07/30 08:35:38;;;;;;;8.85;2.40;;;18.90;99.90;;;;;;5074684;28;20434;-80
2023/07/30 08:38:04;;;;;;;7.70;2.20;;;18.70;99.90;;;;;;5048499;28;20419;-79
2023/07/30 08:40:29;;;;;;;8.60;2.50;;;18.70;99.90;;;;;;5059134;28;20433;-79
2023/07/30 08:42:55;;;;;;;8.68;2.28;;;19.10;99.90;;;;;;5053038;28;20830;-80
2023/07/30 08:45:21;;;;;;;11.55;2.65;;;19.00;99.90;;;;;;5065902;28;20413;-79
2023/07/30 08:47:47;;;;;;;8.07;2.20;;;19.40;99.90;;;;;;5042644;28;20424;-79
2023/07/30 08:50:14;;;;;;;6.22;2.15;;;19.30;99.90;;;;;;5043108;28;20790;-79
2023/07/30 08:52:41;;;;;;;8.15;2.10;;;19.50;99.90;;;;;;5065302;28;20429;-79
2023/07/30 08:55:08;;;;;;;10.10;2.55;;;19.60;99.90;;;;;;5061039;28;20867;-79
2023/07/30 08:57:34;;;;;;;8.27;2.13;;;19.50;99.90;;;;;;5059155;28;20816;-79
2023/07/30 09:00:08;;;;;;;9.60;2.50;;;19.70;99.90;;;;;;5072734;28;20463;-79
2023/07/30 09:02:56;;;;;;;6.95;2.08;;;19.50;99.90;;;;;;5069298;28;20501;-78
2023/07/30 09:05:22;;;;;;;9.27;2.55;;;19.50;99.90;;;;;;5064151;28;20420;-78
2023/07/30 09:07:48;;;;;;;11.45;2.40;;;19.40;99.90;;;;;;5073567;28;20398;-79
2023/07/30 09:10:15;;;;;;;10.20;2.50;;;19.00;99.90;;;;;;5055741;28;20455;-80
2023/07/30 09:12:41;;;;;;;13.13;3.40;;;19.00;99.90;;;;;;5056647;28;20423;-81
2023/07/30 09:15:07;;;;;;;8.73;2.43;;;19.10;99.90;;;;;;5069302;28;20941;-80
2023/07/30 09:17:34;;;;;;;11.60;2.65;;;18.40;99.90;;;;;;5071208;28;20435;-79
2023/07/30 09:20:01;;;;;;;8.02;2.47;;;18.00;99.90;;;;;;5067108;28;20412;-78
2023/07/30 09:22:27;;;;;;;8.23;2.78;;;18.20;99.90;;;;;;5067338;28;20724;-78
2023/07/30 09:24:56;;;;;;;8.13;2.40;;;18.00;99.90;;;;;;5064693;28;21707;-79
2023/07/30 09:27:26;;;;;;;8.52;2.40;;;17.80;99.90;;;;;;5072091;28;20445;-79
2023/07/30 09:29:59;;;;;;;7.18;2.50;;;17.60;99.90;;;;;;5060194;28;20492;-78
2023/07/30 09:32:30;;;;;;;6.97;2.20;;;17.20;99.90;;;;;;5083534;28;20415;-77
2023/07/30 09:35:06;;;;;;;8.23;1.87;;;17.20;99.90;;;;;;5062767;28;20424;-76
2023/07/30 09:37:35;;;;;;;6.57;2.17;;;17.40;99.90;;;;;;5068116;28;20479;-77
2023/07/30 09:40:02;;;;;;;4.45;1.58;;;17.40;99.90;;;;;;5069236;28;20928;-77
2023/07/30 09:42:28;;;;;;;4.85;1.50;;;17.50;99.90;;;;;;5058949;28;20534;-76
2023/07/30 09:44:59;;;;;;;7.18;1.42;;;17.70;99.90;;;;;;5043406;28;20904;-78
2023/07/30 09:47:26;;;;;;;4.07;1.40;;;17.10;99.90;;;;;;5067939;28;20436;-79
2023/07/30 09:49:53;;;;;;;6.82;1.88;;;17.80;99.90;;;;;;5064018;28;20423;-76
2023/07/30 09:52:20;;;;;;;4.10;1.60;;;17.70;99.90;;;;;;5052980;28;20429;-77
2023/07/30 09:54:47;;;;;;;6.13;1.80;;;17.80;99.90;;;;;;5048764;28;20505;-77
2023/07/30 09:57:12;;;;;;;4.90;1.63;;;17.60;99.90;;;;;;5061104;28;20986;-77
2023/07/30 09:59:38;;;;;;;4.82;1.75;;;17.80;99.90;;;;;;5051757;28;20446;-77
2023/07/30 10:02:06;;;;;;;3.67;1.70;;;18.20;99.90;;;;;;5054017;28;21068;-78
2023/07/30 10:04:33;;;;;;;5.13;1.85;;;18.60;99.90;;;;;;5043487;28;20452;-76
2023/07/30 10:07:04;;;;;;;6.57;1.80;;;18.90;99.90;;;;;;5060200;28;20495;-76
2023/07/30 10:09:43;;;;;;;5.22;1.80;;;19.20;99.90;;;;;;5045026;28;20417;-76
2023/07/30 10:12:17;;;;;;;8.77;2.00;;;19.60;99.90;;;;;;5042990;28;20416;-76
2023/07/30 10:14:44;;;;;;;6.22;1.80;;;19.80;99.90;;;;;;5042337;28;20431;-75
2023/07/30 10:17:11;;;;;;;6.43;2.20;;;19.90;99.90;;;;;;5046208;28;20824;-75
2023/07/30 10:19:37;;;;;;;6.10;2.00;;;19.70;99.90;;;;;;5055174;28;20414;-75
2023/07/30 10:22:23;;;;;;;6.72;2.33;;;20.00;99.90;;;;;;5037882;28;20409;-76
2023/07/30 10:25:00;;;;;;;16.60;3.00;;;20.20;99.90;;;;;;5059048;28;20494;-81
2023/07/30 10:27:34;;;;;;;9.30;2.30;;;19.30;99.90;;;;;;5051694;28;20456;-84
2023/07/30 10:30:14;;;;;;;8.27;2.33;;;19.10;99.90;;;;;;5063652;28;20471;-78
2023/07/30 10:32:41;;;;;;;6.80;2.38;;;18.80;99.90;;;;;;5063725;28;20780;-78
2023/07/30 10:35:07;;;;;;;9.35;2.30;;;18.50;99.90;;;;;;5039771;28;20493;-77
2023/07/30 10:37:33;;;;;;;7.93;2.22;;;18.60;99.90;;;;;;5048189;28;20879;-78
2023/07/30 10:39:58;;;;;;;6.97;2.38;;;19.10;99.90;;;;;;5053109;28;20507;-78
2023/07/30 10:42:33;;;;;;;10.30;2.70;;;18.80;99.90;;;;;;5071845;28;20457;-77
2023/07/30 10:44:59;;;;;;;12.20;3.07;;;19.10;99.90;;;;;;5061354;28;20467;-77
2023/07/30 10:47:27;;;;;;;8.13;2.53;;;19.10;99.90;;;;;;5051860;28;20418;-78
2023/07/30 10:49:53;;;;;;;10.13;2.70;;;19.30;99.90;;;;;;5032125;28;20421;-76
2023/07/30 10:52:23;;;;;;;11.38;3.22;;;19.40;99.90;;;;;;5049705;28;20500;-77
2023/07/30 10:54:49;;;;;;;10.05;2.50;;;19.60;99.90;;;;;;5048149;28;20417;-77
2023/07/30 10:57:16;;;;;;;8.73;2.40;;;20.00;99.90;;;;;;5029242;28;20747;-79
2023/07/30 10:59:41;;;;;;;9.10;2.33;;;19.90;99.90;;;;;;5053507;28;20415;-80
2023/07/30 11:02:08;;;;;;;10.65;2.67;;;20.20;99.90;;;;;;5066364;28;20438;-78
2023/07/30 11:04:35;;;;;;;9.23;2.60;;;20.40;99.90;;;;;;5072105;28;20429;-80
2023/07/30 11:07:00;;;;;;;6.80;2.40;;;20.60;99.90;;;;;;5058197;28;20813;-78
2023/07/30 11:09:27;;;;;;;9.47;2.40;;;20.50;99.90;;;;;;5046051;28;20488;-80
2023/07/30 11:11:55;;;;;;;8.70;2.45;;;20.50;99.90;;;;;;5045903;28;20509;-80
2023/07/30 11:14:22;;;;;;;8.07;2.10;;;20.70;99.90;;;;;;5065585;28;20429;-81
2023/07/30 11:17:00;;;;;;;5.82;2.00;;;20.20;99.90;;;;;;5052874;28;20419;-80
2023/07/30 11:19:29;;;;;;;8.48;2.40;;;20.50;99.90;;;;;;5063844;28;20424;-79
2023/07/30 11:21:57;;;;;;;8.68;2.28;;;20.70;99.90;;;;;;5063117;28;20481;-77
2023/07/30 11:24:34;;;;;;;7.05;2.00;;;20.50;99.90;;;;;;5047963;28;20418;-77
2023/07/30 11:27:01;;;;;;;7.90;2.00;;;20.80;99.90;;;;;;5063374;28;20423;-77
2023/07/30 11:29:27;;;;;;;7.55;2.35;;;20.70;99.90;;;;;;5070236;28;20448;-77
2023/07/30 11:31:56;;;;;;;7.35;2.25;;;20.50;99.90;;;;;;5072637;28;20426;-77
2023/07/30 11:34:22;;;;;;;9.02;2.15;;;19.70;99.90;;;;;;5057076;28;20939;-77
2023/07/30 11:36:49;;;;;;;9.95;2.40;;;19.70;99.90;;;;;;5054255;28;20416;-77
2023/07/30 11:39:14;;;;;;;10.43;2.38;;;19.60;99.90;;;;;;5046394;28;20422;-78
2023/07/30 11:41:40;;;;;;;8.55;2.47;;;19.50;99.90;;;;;;5054443;28;20789;-77
2023/07/30 11:44:06;;;;;;;8.77;2.17;;;19.60;99.90;;;;;;5035640;28;20477;-76
2023/07/30 11:46:33;;;;;;;11.07;2.67;;;19.50;99.90;;;;;;5062405;28;20445;-75
2023/07/30 11:49:13;;;;;;;10.20;2.50;;;19.90;99.90;;;;;;5045299;28;20524;-76
2023/07/30 11:51:39;;;;;;;10.68;2.75;;;20.10;99.90;;;;;;5067378;28;20436;-76
2023/07/30 11:54:05;;;;;;;9.38;2.33;;;20.10;99.90;;;;;;5064402;28;20423;-77
2023/07/30 11:56:33;;;;;;;10.40;2.60;;;19.90;99.90;;;;;;5034554;28;20586;-76
2023/07/30 11:59:00;;;;;;;8.15;2.40;;;19.80;99.90;;;;;;5055728;28;20411;-76
2023/07/30 12:01:28;;;;;;;7.70;2.20;;;19.40;99.90;;;;;;5042353;28;20925;-75
2023/07/30 12:03:59;;;;;;;10.13;2.13;;;19.00;99.90;;;;;;5070209;28;20433;-76
2023/07/30 12:06:38;;;;;;;10.20;2.42;;;19.00;99.90;;;;;;5065901;28;20966;-75
2023/07/30 12:09:14;;;;;;;7.82;2.40;;;18.50;99.90;;;;;;5043454;28;20445;-75
2023/07/30 12:11:56;;;;;;;7.70;2.00;;;18.40;99.90;;;;;;5066455;28;20493;-76
2023/07/30 12:14:29;;;;;;;8.02;2.50;;;18.20;99.90;;;;;;5071741;28;20422;-76
2023/07/30 12:16:58;;;;;;;7.85;3.20;;;18.10;99.90;;;;;;5074329;28;20401;-76
2023/07/30 12:19:24;;;;;;;9.52;2.30;;;18.10;99.90;;;;;;5054117;28;20417;-74
2023/07/30 12:21:50;;;;;;;9.57;2.10;;;18.20;99.90;;;;;;5043404;28;20771;-74
2023/07/30 12:24:15;;;;;;;10.68;2.10;;;18.40;99.90;;;;;;5048453;28;21088;-75
2023/07/30 12:26:41;;;;;;;9.10;2.30;;;18.70;99.90;;;;;;5046201;28;20794;-76
2023/07/30 12:29:07;;;;;;;8.60;2.13;;;18.90;99.90;;;;;;5054743;28;20403;-75
2023/07/30 12:31:33;;;;;;;7.50;1.97;;;20.80;99.90;;;;;;5046900;28;20429;-76
2023/07/30 12:33:58;;;;;;;7.03;2.30;;;18.70;99.90;;;;;;5066165;28;20437;-76
2023/07/30 12:36:24;;;;;;;10.20;2.58;;;19.10;99.90;;;;;;5073982;28;20453;-76
2023/07/30 12:38:53;;;;;;;7.03;1.90;;;19.30;99.90;;;;;;5051745;28;20607;-76